createdAt,value
2022-10-31T00:00:56.143Z,98833.38
2022-10-31T00:01:58.997Z,98836.28
2022-10-31T00:03:02.308Z,98825.06
2022-10-31T00:04:06.494Z,98826.34
2022-10-31T00:05:09.822Z,98828.97
2022-10-31T00:06:12.981Z,98825.84
2022-10-31T00:07:16.065Z,98822.13
2022-10-31T00:08:19.587Z,98825.53
2022-10-31T00:09:22.499Z,98823.12
2022-10-31T00:10:25.499Z,98824.19
2022-10-31T00:11:28.898Z,98822.28
2022-10-31T00:12:31.736Z,98822.72
2022-10-31T00:13:34.584Z,98823.69
2022-10-31T00:14:37.380Z,98823.25
2022-10-31T00:15:41.560Z,98822.31
2022-10-31T00:16:44.353Z,98824.69
2022-10-31T00:17:47.299Z,98825.03
2022-10-31T00:18:54.494Z,98825.47
2022-10-31T00:19:58.028Z,98821.25
2022-10-31T00:21:04.715Z,98820.63
2022-10-31T00:22:07.598Z,98820.28
2022-10-31T00:23:11.809Z,98826.59
2022-10-31T00:24:14.855Z,98817.25
2022-10-31T00:25:17.750Z,98817.66
2022-10-31T00:26:21.071Z,98812.56
2022-10-31T00:27:23.999Z,98818.50
2022-10-31T00:28:26.910Z,98806.72
2022-10-31T00:29:29.748Z,98804.87
2022-10-31T00:30:32.930Z,98810.09
2022-10-31T00:31:36.013Z,98810.03
2022-10-31T00:32:38.837Z,98814.03
2022-10-31T00:33:42.765Z,98808.06
2022-10-31T00:34:45.645Z,98805.75
2022-10-31T00:35:52.191Z,98806.97
2022-10-31T00:36:55.081Z,98803.63
2022-10-31T00:37:57.924Z,98810.22
2022-10-31T00:39:00.827Z,98806.44
2022-10-31T00:40:03.980Z,98809.69
2022-10-31T00:41:06.893Z,98807.41
2022-10-31T00:42:09.763Z,98807.44
2022-10-31T00:44:20.426Z,98800.31
2022-10-31T00:45:23.296Z,98803.94
2022-10-31T00:46:26.358Z,98797.25
2022-10-31T00:47:29.337Z,98806.09
2022-10-31T00:48:32.269Z,98801.94
2022-10-31T00:49:35.216Z,98797.72
2022-10-31T00:50:38.588Z,98799.88
2022-10-31T00:51:41.565Z,98787.75
2022-10-31T00:52:48.135Z,98792.47
2022-10-31T00:53:51.007Z,98795.03
2022-10-31T00:54:53.860Z,98803.06
2022-10-31T00:55:56.736Z,98798.47
2022-10-31T00:56:59.820Z,98796.25
2022-10-31T00:58:03.211Z,98794.19
2022-10-31T00:59:06.808Z,98799.44
2022-10-31T01:00:10.176Z,98801.28
2022-10-31T01:01:13.443Z,98793.69
2022-10-31T01:02:16.647Z,98799.75
2022-10-31T01:03:19.790Z,98795.78
2022-10-31T01:04:22.901Z,98800.75
2022-10-31T01:05:25.976Z,98796.09
2022-10-31T01:06:28.832Z,98799.56
2022-10-31T01:07:31.967Z,98806.63
2022-10-31T01:08:36.169Z,98799.53
2022-10-31T01:09:39.096Z,98801.31
2022-10-31T01:10:41.944Z,98806.19
2022-10-31T01:11:44.863Z,98798.38
2022-10-31T01:12:50.240Z,98803.09
2022-10-31T01:13:54.735Z,98799.31
2022-10-31T01:14:57.641Z,98794.78
2022-10-31T01:16:03.294Z,98790.91
2022-10-31T01:17:06.098Z,98791.91
2022-10-31T01:18:08.918Z,98788.44
2022-10-31T01:19:11.789Z,98797.53
2022-10-31T01:20:16.627Z,98790.97
2022-10-31T01:21:23.031Z,98795.69
2022-10-31T01:22:25.872Z,98788.63
2022-10-31T01:23:29.817Z,98789.78
2022-10-31T01:24:33.037Z,98788.28
2022-10-31T01:25:35.890Z,98793.62
2022-10-31T01:26:38.945Z,98794.88
2022-10-31T01:27:41.779Z,98786.25
2022-10-31T01:28:52.941Z,98790.50
2022-10-31T01:29:55.821Z,98791.53
2022-10-31T01:31:02.898Z,98792.06
2022-10-31T01:32:06.132Z,98793.69
2022-10-31T01:33:08.920Z,98789.47
2022-10-31T01:34:16.544Z,98780.63
2022-10-31T01:35:19.320Z,98784.00
2022-10-31T01:36:25.777Z,98781.69
2022-10-31T01:37:32.164Z,98783.03
2022-10-31T01:38:34.993Z,98776.25
2022-10-31T01:39:37.945Z,98786.63
2022-10-31T01:40:40.811Z,98782.16
2022-10-31T01:41:47.250Z,98781.34
2022-10-31T01:42:50.197Z,98782.03
2022-10-31T01:44:01.703Z,98784.34
2022-10-31T01:45:06.455Z,98783.53
2022-10-31T01:46:09.386Z,98785.12
2022-10-31T01:47:21.513Z,98785.47
2022-10-31T01:48:33.126Z,98783.13
2022-10-31T01:49:50.236Z,98779.66
2022-10-31T01:50:55.965Z,98777.09
2022-10-31T01:52:04.343Z,98779.50
2022-10-31T01:53:09.546Z,98780.91
2022-10-31T01:54:15.780Z,98780.09
2022-10-31T01:55:27.709Z,98776.47
2022-10-31T01:56:36.697Z,98781.97
2022-10-31T01:57:43.818Z,98784.25
2022-10-31T01:58:48.137Z,98775.81
2022-10-31T01:59:56.416Z,98782.88
2022-10-31T02:01:06.687Z,98784.97
2022-10-31T02:02:12.135Z,98773.28
2022-10-31T02:03:15.546Z,98777.56
2022-10-31T02:04:20.466Z,98777.06
2022-10-31T02:05:27.259Z,98772.63
2022-10-31T02:06:42.658Z,98784.13
2022-10-31T02:08:26.828Z,98777.06
2022-10-31T02:09:32.990Z,98773.56
2022-10-31T02:10:37.871Z,98779.28
2022-10-31T02:11:42.353Z,98766.75
2022-10-31T02:12:46.220Z,98774.91
2022-10-31T02:13:49.436Z,98773.06
2022-10-31T02:14:52.346Z,98777.00
2022-10-31T02:15:58.261Z,98786.59
2022-10-31T02:17:01.218Z,98770.91
2022-10-31T02:18:05.168Z,98771.22
2022-10-31T02:19:10.458Z,98770.91
2022-10-31T02:20:26.546Z,98772.44
2022-10-31T02:21:32.287Z,98768.31
2022-10-31T02:22:45.966Z,98770.16
2022-10-31T02:24:14.183Z,98768.59
2022-10-31T02:25:22.718Z,98766.81
2022-10-31T02:26:40.494Z,98765.00
2022-10-31T02:27:54.745Z,98761.63
2022-10-31T02:29:00.047Z,98759.47
2022-10-31T02:30:14.581Z,98769.16
2022-10-31T02:31:57.793Z,98765.00
2022-10-31T02:33:07.560Z,98762.94
2022-10-31T02:34:45.217Z,98771.50
2022-10-31T02:36:11.569Z,98777.88
2022-10-31T02:37:22.811Z,98770.56
2022-10-31T02:39:07.819Z,98771.56
2022-10-31T02:40:37.235Z,98772.63
2022-10-31T02:41:53.704Z,98775.69
2022-10-31T02:43:08.587Z,98773.34
2022-10-31T02:44:53.140Z,98780.75
2022-10-31T02:46:05.058Z,98776.19
2022-10-31T02:47:18.614Z,98772.56
2022-10-31T02:48:28.415Z,98776.81
2022-10-31T02:49:41.582Z,98774.84
2022-10-31T02:50:52.946Z,98785.66
2022-10-31T02:51:56.387Z,98788.59
2022-10-31T02:52:59.440Z,98786.19
2022-10-31T02:54:02.336Z,98784.19
2022-10-31T02:55:34.587Z,98790.22
2022-10-31T02:56:37.391Z,98788.38
2022-10-31T02:57:43.046Z,98788.91
2022-10-31T02:58:56.722Z,98785.75
2022-10-31T03:00:03.376Z,98780.50
2022-10-31T03:01:18.474Z,98782.13
2022-10-31T03:02:45.463Z,98784.19
2022-10-31T03:04:03.621Z,98777.88
2022-10-31T03:05:18.609Z,98781.47
2022-10-31T03:06:41.875Z,98779.22
2022-10-31T03:08:12.344Z,98786.53
2022-10-31T03:09:46.459Z,98783.31
2022-10-31T03:11:11.039Z,98779.22
2022-10-31T03:12:22.474Z,98781.34
2022-10-31T03:13:37.463Z,98779.97
2022-10-31T03:15:30.235Z,98777.12
2022-10-31T03:16:45.442Z,98781.50
2022-10-31T03:18:07.197Z,98783.78
2022-10-31T03:19:25.669Z,98787.94
2022-10-31T03:21:02.844Z,98792.62
2022-10-31T03:22:28.119Z,98786.84
2022-10-31T03:23:37.534Z,98790.66
2022-10-31T03:24:41.742Z,98790.31
2022-10-31T03:25:47.135Z,98794.66
2022-10-31T03:26:54.502Z,98795.38
2022-10-31T03:27:59.640Z,98801.69
2022-10-31T03:29:15.059Z,98783.97
2022-10-31T03:30:19.098Z,98795.19
2022-10-31T03:31:27.649Z,98797.81
2022-10-31T03:32:36.339Z,98801.09
2022-10-31T03:33:41.428Z,98801.34
2022-10-31T03:34:47.299Z,98792.97
2022-10-31T03:35:55.244Z,98804.78
2022-10-31T03:37:03.213Z,98807.94
2022-10-31T03:38:08.050Z,98789.56
2022-10-31T03:39:16.064Z,98791.28
2022-10-31T03:40:22.419Z,98796.72
2022-10-31T03:41:29.671Z,98799.91
2022-10-31T03:42:36.113Z,98799.53
2022-10-31T03:43:44.404Z,98800.34
2022-10-31T03:45:00.891Z,98785.91
2022-10-31T03:46:04.582Z,98796.37
2022-10-31T03:47:08.183Z,98796.37
2022-10-31T03:48:11.613Z,98790.41
2022-10-31T03:49:15.083Z,98791.91
2022-10-31T03:50:18.632Z,98792.22
2022-10-31T03:51:28.254Z,98794.84
2022-10-31T03:52:50.993Z,98798.06
2022-10-31T03:54:05.592Z,98799.00
2022-10-31T03:55:14.815Z,98810.50
2022-10-31T03:56:52.327Z,98806.81
2022-10-31T03:58:34.537Z,98807.22
2022-10-31T03:59:42.417Z,98808.47
2022-10-31T04:00:47.303Z,98805.00
2022-10-31T04:01:55.063Z,98806.84
2022-10-31T04:03:23.577Z,98805.91
2022-10-31T04:04:28.098Z,98800.28
2022-10-31T04:05:32.417Z,98797.19
2022-10-31T04:06:40.099Z,98803.38
2022-10-31T04:07:48.597Z,98797.50
2022-10-31T04:08:58.841Z,98796.69
2022-10-31T04:10:05.913Z,98805.59
2022-10-31T04:11:11.975Z,98803.41
2022-10-31T04:12:17.156Z,98802.31
2022-10-31T04:13:25.724Z,98801.72
2022-10-31T04:14:32.454Z,98804.09
2022-10-31T04:15:38.446Z,98800.41
2022-10-31T04:16:44.224Z,98805.91
2022-10-31T04:17:50.587Z,98807.53
2022-10-31T04:18:54.361Z,98801.53
2022-10-31T04:20:01.544Z,98809.31
2022-10-31T04:21:07.797Z,98803.94
2022-10-31T04:22:10.835Z,98815.50
2022-10-31T04:23:23.610Z,98794.31
2022-10-31T04:24:26.606Z,98805.47
2022-10-31T04:25:29.915Z,98802.00
2022-10-31T04:26:33.400Z,98811.37
2022-10-31T04:27:36.303Z,98812.66
2022-10-31T04:28:39.807Z,98807.94
2022-10-31T04:29:45.486Z,98811.81
2022-10-31T04:30:51.531Z,98817.81
2022-10-31T04:31:54.439Z,98812.13
2022-10-31T04:32:57.433Z,98816.03
2022-10-31T04:34:00.627Z,98817.91
2022-10-31T04:35:07.230Z,98817.94
2022-10-31T04:36:10.816Z,98816.12
2022-10-31T04:37:13.673Z,98824.19
2022-10-31T04:38:16.569Z,98821.03
2022-10-31T04:39:22.785Z,98824.97
2022-10-31T04:40:29.836Z,98819.66
2022-10-31T04:41:32.726Z,98823.62
2022-10-31T04:42:35.603Z,98823.62
2022-10-31T04:43:38.587Z,98821.00
2022-10-31T04:44:41.650Z,98825.53
2022-10-31T04:45:44.558Z,98829.97
2022-10-31T04:46:47.683Z,98825.44
2022-10-31T04:47:50.547Z,98824.63
2022-10-31T04:48:53.468Z,98822.34
2022-10-31T04:49:56.383Z,98827.41
2022-10-31T04:51:07.258Z,98825.31
2022-10-31T04:52:09.893Z,98830.00
2022-10-31T04:53:12.758Z,98832.63
2022-10-31T04:54:19.236Z,98831.56
2022-10-31T04:55:22.384Z,98836.53
2022-10-31T04:56:25.457Z,98833.34
2022-10-31T04:57:28.536Z,98826.53
2022-10-31T04:58:31.591Z,98827.63
2022-10-31T04:59:34.503Z,98828.59
2022-10-31T05:00:37.341Z,98827.28
2022-10-31T05:01:43.354Z,98833.81
2022-10-31T05:02:51.480Z,98824.66
2022-10-31T05:03:54.342Z,98822.69
2022-10-31T05:04:57.184Z,98826.97
2022-10-31T05:06:00.021Z,98829.03
2022-10-31T05:07:02.938Z,98827.56
2022-10-31T05:08:05.909Z,98832.00
2022-10-31T05:09:08.740Z,98825.22
2022-10-31T05:10:14.705Z,98833.59
2022-10-31T05:11:17.618Z,98834.44
2022-10-31T05:12:20.456Z,98831.28
2022-10-31T05:13:23.393Z,98825.97
2022-10-31T05:14:26.179Z,98824.91
2022-10-31T05:15:30.013Z,98827.69
2022-10-31T05:16:32.928Z,98827.41
2022-10-31T05:17:35.981Z,98833.97
2022-10-31T05:18:42.243Z,98835.56
2022-10-31T05:19:45.205Z,98832.09
2022-10-31T05:20:48.282Z,98850.53
2022-10-31T05:21:51.259Z,98839.84
2022-10-31T05:22:56.416Z,98831.12
2022-10-31T05:23:59.223Z,98810.78
2022-10-31T05:25:02.143Z,98814.44
2022-10-31T05:26:05.231Z,98817.13
2022-10-31T05:27:08.217Z,98824.53
2022-10-31T05:28:11.189Z,98816.38
2022-10-31T05:29:14.673Z,98812.97
2022-10-31T05:30:21.422Z,98816.16
2022-10-31T05:31:24.421Z,98819.53
2022-10-31T05:32:27.340Z,98823.44
2022-10-31T05:33:30.137Z,98826.50
2022-10-31T05:34:32.946Z,98843.50
2022-10-31T05:35:35.777Z,98839.28
2022-10-31T05:36:38.579Z,98844.53
2022-10-31T05:37:41.511Z,98848.50
2022-10-31T05:38:44.779Z,98836.97
2022-10-31T05:39:47.619Z,98836.13
2022-10-31T05:40:50.460Z,98837.09
2022-10-31T05:41:53.410Z,98837.66
2022-10-31T05:43:02.492Z,98842.84
2022-10-31T05:44:05.859Z,98839.16
2022-10-31T05:45:10.837Z,98844.41
2022-10-31T05:46:13.732Z,98841.34
2022-10-31T05:47:16.597Z,98853.13
2022-10-31T05:48:19.415Z,98847.88
2022-10-31T05:49:22.350Z,98838.62
2022-10-31T05:50:27.735Z,98840.22
2022-10-31T05:51:30.655Z,98836.84
2022-10-31T05:52:33.798Z,98839.97
2022-10-31T05:53:36.633Z,98842.78
2022-10-31T05:54:39.352Z,98841.16
2022-10-31T05:55:43.336Z,98846.16
2022-10-31T05:56:46.176Z,98830.00
2022-10-31T05:57:49.105Z,98828.47
2022-10-31T05:58:51.936Z,98832.75
2022-10-31T05:59:55.318Z,98838.25
2022-10-31T06:00:58.302Z,98837.09
2022-10-31T06:02:03.494Z,98839.41
2022-10-31T06:04:12.590Z,98839.59
2022-10-31T06:05:15.685Z,98842.56
2022-10-31T06:06:18.677Z,98844.28
2022-10-31T06:07:21.618Z,98854.75
2022-10-31T06:08:24.537Z,98848.75
2022-10-31T06:09:27.536Z,98859.31
2022-10-31T06:10:30.618Z,98852.28
2022-10-31T06:11:33.420Z,98844.16
2022-10-31T06:12:41.836Z,98843.34
2022-10-31T06:13:45.559Z,98851.28
2022-10-31T06:14:48.459Z,98852.56
2022-10-31T06:15:51.301Z,98853.44
2022-10-31T06:16:55.741Z,98841.50
2022-10-31T06:18:03.869Z,98837.09
2022-10-31T06:19:10.315Z,98835.97
2022-10-31T06:20:13.310Z,98837.06
2022-10-31T06:21:18.912Z,98841.16
2022-10-31T06:22:22.294Z,98843.50
2022-10-31T06:23:25.107Z,98848.09
2022-10-31T06:24:27.990Z,98842.34
2022-10-31T06:25:31.048Z,98841.56
2022-10-31T06:26:34.140Z,98844.69
2022-10-31T06:27:36.897Z,98844.41
2022-10-31T06:28:39.773Z,98844.91
2022-10-31T06:29:42.618Z,98843.09
2022-10-31T06:30:45.505Z,98849.09
2022-10-31T06:31:48.359Z,98843.34
2022-10-31T06:32:51.502Z,98859.03
2022-10-31T06:33:54.437Z,98864.03
2022-10-31T06:34:57.258Z,98856.94
2022-10-31T06:36:00.062Z,98860.84
2022-10-31T06:37:03.056Z,98850.06
2022-10-31T06:38:06.185Z,98847.47
2022-10-31T06:39:09.313Z,98853.78
2022-10-31T06:40:12.667Z,98855.59
2022-10-31T06:41:15.593Z,98866.31
2022-10-31T06:42:18.736Z,98869.25
2022-10-31T06:43:22.502Z,98884.34
2022-10-31T06:44:25.266Z,98870.94
2022-10-31T06:45:28.498Z,98865.72
2022-10-31T06:46:31.384Z,98871.22
2022-10-31T06:47:41.413Z,98867.09
2022-10-31T06:48:48.739Z,98870.94
2022-10-31T06:49:51.542Z,98871.22
2022-10-31T06:50:59.432Z,98865.78
2022-10-31T06:52:02.473Z,98867.09
2022-10-31T06:53:05.438Z,98866.31
2022-10-31T06:54:08.297Z,98872.47
2022-10-31T06:55:11.097Z,98870.88
2022-10-31T06:56:14.018Z,98865.09
2022-10-31T06:57:17.061Z,98868.31
2022-10-31T06:58:20.056Z,98876.59
2022-10-31T06:59:23.097Z,98875.84
2022-10-31T07:00:29.524Z,98875.81
2022-10-31T07:01:32.580Z,98879.28
2022-10-31T07:02:35.651Z,98884.34
2022-10-31T07:03:38.507Z,98881.72
2022-10-31T07:04:41.408Z,98879.59
2022-10-31T07:05:44.418Z,98882.13
2022-10-31T07:06:51.784Z,98889.97
2022-10-31T07:08:01.209Z,98886.81
2022-10-31T07:09:04.591Z,98890.56
2022-10-31T07:10:07.688Z,98885.56
2022-10-31T07:11:10.570Z,98876.62
2022-10-31T07:12:13.415Z,98886.41
2022-10-31T07:13:16.305Z,98889.53
2022-10-31T07:14:19.810Z,98888.91
2022-10-31T07:15:23.610Z,98897.16
2022-10-31T07:16:26.504Z,98892.00
2022-10-31T07:17:30.213Z,98885.19
2022-10-31T07:18:33.540Z,98889.91
2022-10-31T07:19:36.392Z,98894.91
2022-10-31T07:20:39.555Z,98901.22
2022-10-31T07:21:42.580Z,98901.72
2022-10-31T07:22:49.723Z,98895.59
2022-10-31T07:23:53.628Z,98890.34
2022-10-31T07:24:56.465Z,98894.03
2022-10-31T07:26:00.497Z,98889.22
2022-10-31T07:27:07.339Z,98893.09
2022-10-31T07:28:11.060Z,98893.72
2022-10-31T07:29:13.914Z,98884.75
2022-10-31T07:30:19.502Z,98888.44
2022-10-31T07:31:22.460Z,98884.47
2022-10-31T07:32:25.263Z,98892.62
2022-10-31T07:33:28.217Z,98887.69
2022-10-31T07:34:31.060Z,98890.75
2022-10-31T07:35:34.117Z,98894.25
2022-10-31T07:36:37.097Z,98892.84
2022-10-31T07:37:40.657Z,98894.25
2022-10-31T07:38:43.657Z,98893.72
2022-10-31T07:39:46.788Z,98890.88
2022-10-31T07:40:56.430Z,98893.50
2022-10-31T07:42:02.164Z,98897.09
2022-10-31T07:43:08.831Z,98903.69
2022-10-31T07:44:16.111Z,98890.22
2022-10-31T07:45:20.857Z,98901.00
2022-10-31T07:46:24.060Z,98887.44
2022-10-31T07:47:27.709Z,98902.91
2022-10-31T07:48:30.976Z,98893.16
2022-10-31T07:49:34.421Z,98899.50
2022-10-31T07:50:37.342Z,98894.19
2022-10-31T07:51:45.553Z,98894.94
2022-10-31T07:52:58.719Z,98898.09
2022-10-31T07:54:02.356Z,98898.06
2022-10-31T07:55:06.577Z,98892.59
2022-10-31T07:56:09.320Z,98894.22
2022-10-31T07:57:12.097Z,98900.41
2022-10-31T07:58:16.977Z,98889.91
2022-10-31T07:59:19.697Z,98894.94
2022-10-31T08:00:22.602Z,98887.38
2022-10-31T08:01:25.302Z,98897.91
2022-10-31T08:02:28.340Z,98890.78
2022-10-31T08:03:31.055Z,98891.25
2022-10-31T08:04:33.857Z,98900.38
2022-10-31T08:05:37.470Z,98896.44
2022-10-31T08:06:40.300Z,98896.78
2022-10-31T08:07:43.070Z,98895.87
2022-10-31T08:08:45.820Z,98895.31
2022-10-31T08:09:48.729Z,98896.09
2022-10-31T08:10:51.655Z,98903.69
2022-10-31T08:11:54.936Z,98894.66
2022-10-31T08:13:09.261Z,98899.84
2022-10-31T08:14:12.151Z,98897.19
2022-10-31T08:15:15.017Z,98896.63
2022-10-31T08:16:17.938Z,98903.28
2022-10-31T08:17:20.895Z,98902.72
2022-10-31T08:18:24.919Z,98894.44
2022-10-31T08:19:27.711Z,98908.19
2022-10-31T08:20:30.599Z,98900.59
2022-10-31T08:21:33.904Z,98906.41
2022-10-31T08:22:41.184Z,98905.06
2022-10-31T08:23:45.846Z,98903.00
2022-10-31T08:24:48.707Z,98902.81
2022-10-31T08:25:51.361Z,98915.03
2022-10-31T08:26:54.006Z,98907.78
2022-10-31T08:27:58.209Z,98912.56
2022-10-31T08:29:01.137Z,98911.28
2022-10-31T08:30:04.128Z,98909.94
2022-10-31T08:31:07.012Z,98907.12
2022-10-31T08:32:09.640Z,98908.25
2022-10-31T08:33:19.048Z,98908.63
2022-10-31T08:34:21.571Z,98908.84
2022-10-31T08:35:24.317Z,98910.97
2022-10-31T08:36:28.513Z,98906.41
2022-10-31T08:37:31.226Z,98906.03
2022-10-31T08:38:33.939Z,98898.59
2022-10-31T08:39:36.566Z,98902.44
2022-10-31T08:40:39.918Z,98902.72
2022-10-31T08:41:42.417Z,98907.34
2022-10-31T08:42:44.998Z,98901.09
2022-10-31T08:43:47.959Z,98900.72
2022-10-31T08:44:53.150Z,98902.06
2022-10-31T08:45:56.203Z,98903.47
2022-10-31T08:46:58.852Z,98899.88
2022-10-31T08:48:04.395Z,98906.03
2022-10-31T08:49:07.333Z,98906.09
2022-10-31T08:50:10.034Z,98904.13
2022-10-31T08:51:12.744Z,98897.25
2022-10-31T08:52:16.125Z,98905.34
2022-10-31T08:53:20.464Z,98907.56
2022-10-31T08:54:23.200Z,98905.72
2022-10-31T08:55:25.792Z,98903.84
2022-10-31T08:56:28.463Z,98900.22
2022-10-31T08:57:31.130Z,98910.16
2022-10-31T08:58:39.200Z,98914.44
2022-10-31T08:59:43.117Z,98904.75
2022-10-31T09:00:47.502Z,98909.50
2022-10-31T09:01:50.174Z,98907.53
2022-10-31T09:03:00.133Z,98903.94
2022-10-31T09:04:02.831Z,98908.72
2022-10-31T09:05:05.979Z,98903.84
2022-10-31T09:06:10.278Z,98909.06
2022-10-31T09:07:20.578Z,98908.50
2022-10-31T09:08:24.435Z,98911.34
2022-10-31T09:09:27.223Z,98911.13
2022-10-31T09:10:31.095Z,98909.34
2022-10-31T09:11:33.671Z,98915.09
2022-10-31T09:12:36.196Z,98913.69
2022-10-31T09:13:41.447Z,98911.34
2022-10-31T09:14:44.587Z,98911.03
2022-10-31T09:15:49.211Z,98918.03
2022-10-31T09:16:52.471Z,98911.41
2022-10-31T09:17:55.588Z,98919.22
2022-10-31T09:18:58.616Z,98913.38
2022-10-31T09:20:01.296Z,98911.81
2022-10-31T09:21:04.145Z,98912.63
2022-10-31T09:22:07.856Z,98904.81
2022-10-31T09:23:13.499Z,98917.19
2022-10-31T09:24:19.413Z,98921.19
2022-10-31T09:25:22.066Z,98918.09
2022-10-31T09:26:25.479Z,98908.94
2022-10-31T09:27:28.375Z,98915.47
2022-10-31T09:28:32.914Z,98914.97
2022-10-31T09:29:35.650Z,98921.59
2022-10-31T09:30:38.799Z,98917.53
2022-10-31T09:31:44.950Z,98912.41
2022-10-31T09:32:47.886Z,98914.53
2022-10-31T09:33:53.460Z,98916.81
2022-10-31T09:34:55.999Z,98910.56
2022-10-31T09:35:59.861Z,98917.59
2022-10-31T09:37:02.549Z,98915.97
2022-10-31T09:38:08.017Z,98924.78
2022-10-31T09:39:10.783Z,98915.66
2022-10-31T09:40:13.703Z,98917.75
2022-10-31T09:41:46.172Z,98916.38
2022-10-31T09:42:59.982Z,98917.16
2022-10-31T09:44:02.486Z,98920.78
2022-10-31T09:45:33.188Z,98918.87
2022-10-31T09:47:04.980Z,98919.56
2022-10-31T09:48:30.219Z,98913.09
2022-10-31T09:49:42.495Z,98919.34
2022-10-31T09:50:55.583Z,98919.56
2022-10-31T09:52:21.430Z,98921.03
2022-10-31T09:53:41.986Z,98921.97
2022-10-31T09:54:50.915Z,98921.63
2022-10-31T09:55:54.853Z,98917.16
2022-10-31T09:57:01.360Z,98917.38
2022-10-31T09:58:04.728Z,98919.37
2022-10-31T09:59:15.912Z,98922.41
2022-10-31T10:00:21.702Z,98921.19
2022-10-31T10:01:50.916Z,98915.00
2022-10-31T10:03:13.446Z,98916.75
2022-10-31T10:04:41.821Z,98909.00
2022-10-31T10:05:56.146Z,98906.44
2022-10-31T10:07:00.232Z,98914.59
2022-10-31T10:08:21.559Z,98908.63
2022-10-31T10:09:28.292Z,98911.56
2022-10-31T10:10:43.383Z,98906.38
2022-10-31T10:11:51.806Z,98917.28
2022-10-31T10:12:57.557Z,98907.16
2022-10-31T10:14:21.123Z,98910.56
2022-10-31T10:15:59.781Z,98908.16
2022-10-31T10:17:11.348Z,98912.25
2022-10-31T10:18:39.241Z,98912.25
2022-10-31T10:19:41.709Z,98907.34
2022-10-31T10:21:08.873Z,98910.50
2022-10-31T10:22:28.304Z,98908.66
2022-10-31T10:23:42.734Z,98914.84
2022-10-31T10:25:12.171Z,98906.94
2022-10-31T10:26:23.567Z,98905.88
2022-10-31T10:27:57.620Z,98903.25
2022-10-31T10:29:09.044Z,98901.41
2022-10-31T10:30:21.720Z,98904.50
2022-10-31T10:31:29.691Z,98898.84
2022-10-31T10:33:03.253Z,98902.47
2022-10-31T10:34:20.520Z,98904.72
2022-10-31T10:35:30.682Z,98902.66
2022-10-31T10:36:47.830Z,98900.53
2022-10-31T10:37:54.507Z,98904.53
2022-10-31T10:39:04.448Z,98900.47
2022-10-31T10:40:16.839Z,98899.62
2022-10-31T10:41:23.171Z,98903.44
2022-10-31T10:42:47.285Z,98896.13
2022-10-31T10:43:55.391Z,98899.12
2022-10-31T10:45:17.361Z,98904.66
2022-10-31T10:46:38.632Z,98900.91
2022-10-31T10:47:48.259Z,98897.78
2022-10-31T10:49:12.185Z,98897.22
2022-10-31T10:50:19.984Z,98899.50
2022-10-31T10:51:47.133Z,98894.25
2022-10-31T10:53:09.623Z,98901.28
2022-10-31T10:54:26.055Z,98901.34
2022-10-31T10:55:43.767Z,98892.88
2022-10-31T10:57:37.170Z,98894.00
2022-10-31T10:58:43.702Z,98893.06
2022-10-31T10:59:47.693Z,98892.59
2022-10-31T11:00:57.207Z,98894.81
2022-10-31T11:02:01.248Z,98895.81
2022-10-31T11:03:06.573Z,98892.72
2022-10-31T11:04:30.851Z,98892.03
2022-10-31T11:05:54.492Z,98887.47
2022-10-31T11:07:02.531Z,98891.47
2022-10-31T11:08:06.130Z,98898.91
2022-10-31T11:09:12.015Z,98899.16
2022-10-31T11:10:16.693Z,98897.28
2022-10-31T11:11:19.206Z,98897.28
2022-10-31T11:12:33.264Z,98899.34
2022-10-31T11:13:37.206Z,98892.09
2022-10-31T11:15:01.238Z,98893.16
2022-10-31T11:16:05.692Z,98893.88
2022-10-31T11:17:18.408Z,98889.69
2022-10-31T11:19:33.172Z,98887.41
2022-10-31T11:20:37.363Z,98887.25
2022-10-31T11:21:40.141Z,98879.47
2022-10-31T11:22:49.627Z,98886.22
2022-10-31T11:24:09.922Z,98882.78
2022-10-31T11:25:21.403Z,98879.81
2022-10-31T11:26:24.050Z,98877.22
2022-10-31T11:27:27.696Z,98876.47
2022-10-31T11:28:33.655Z,98871.78
2022-10-31T11:29:37.801Z,98882.78
2022-10-31T11:30:54.048Z,98878.72
2022-10-31T11:31:59.284Z,98879.34
2022-10-31T11:33:02.583Z,98874.38
2022-10-31T11:34:14.310Z,98877.00
2022-10-31T11:35:19.689Z,98876.94
2022-10-31T11:36:34.652Z,98877.75
2022-10-31T11:37:44.728Z,98875.34
2022-10-31T11:38:47.550Z,98876.50
2022-10-31T11:40:17.055Z,98871.44
2022-10-31T11:41:43.760Z,98872.87
2022-10-31T11:42:47.284Z,98872.37
2022-10-31T11:43:55.626Z,98870.47
2022-10-31T11:44:58.393Z,98875.00
2022-10-31T11:46:09.169Z,98869.28
2022-10-31T11:47:15.827Z,98868.31
2022-10-31T11:48:21.853Z,98869.84
2022-10-31T11:49:45.071Z,98868.84
2022-10-31T11:50:57.687Z,98871.63
2022-10-31T11:52:06.294Z,98866.63
2022-10-31T11:53:33.331Z,98872.47
2022-10-31T11:54:54.523Z,98865.28
2022-10-31T11:56:11.669Z,98873.72
2022-10-31T11:57:28.070Z,98864.41
2022-10-31T11:58:30.820Z,98875.50
2022-10-31T11:59:34.139Z,98872.84
2022-10-31T12:00:42.200Z,98873.84
2022-10-31T12:01:50.116Z,98876.19
2022-10-31T12:03:10.874Z,98875.63
2022-10-31T12:04:14.645Z,98879.19
2022-10-31T12:05:26.896Z,98876.69
2022-10-31T12:06:41.661Z,98874.50
2022-10-31T12:07:44.568Z,98876.47
2022-10-31T12:08:47.874Z,98874.19
2022-10-31T12:09:50.664Z,98878.09
2022-10-31T12:11:01.573Z,98876.28
2022-10-31T12:12:30.223Z,98870.88
2022-10-31T12:14:04.042Z,98878.75
2022-10-31T12:15:32.495Z,98879.53
2022-10-31T12:16:43.906Z,98876.28
2022-10-31T12:18:01.844Z,98870.66
2022-10-31T12:19:07.264Z,98876.34
2022-10-31T12:20:38.770Z,98871.34
2022-10-31T12:21:56.370Z,98871.41
2022-10-31T12:23:31.455Z,98876.66
2022-10-31T12:24:46.055Z,98864.97
2022-10-31T12:26:10.161Z,98877.31
2022-10-31T12:27:18.788Z,98875.06
2022-10-31T12:28:27.253Z,98876.69
2022-10-31T12:29:59.605Z,98873.56
2022-10-31T12:31:10.850Z,98871.66
2022-10-31T12:32:30.302Z,98869.84
2022-10-31T12:33:44.610Z,98864.75
2022-10-31T12:34:52.932Z,98868.38
2022-10-31T12:36:22.529Z,98878.09
2022-10-31T12:37:37.572Z,98868.72
2022-10-31T12:38:50.854Z,98867.88
2022-10-31T12:39:59.362Z,98869.91
2022-10-31T12:41:20.495Z,98873.56
2022-10-31T12:42:39.564Z,98861.50
2022-10-31T12:44:08.404Z,98871.88
2022-10-31T12:45:57.120Z,98868.38
2022-10-31T12:47:20.043Z,98868.00
2022-10-31T12:48:47.086Z,98871.81
2022-10-31T12:50:19.092Z,98860.44
2022-10-31T12:51:52.499Z,98866.19
2022-10-31T12:53:03.925Z,98867.44
2022-10-31T12:54:21.188Z,98866.66
2022-10-31T12:55:35.732Z,98862.56
2022-10-31T12:57:01.143Z,98864.69
2022-10-31T12:58:30.587Z,98865.53
2022-10-31T12:59:44.743Z,98856.13
2022-10-31T13:00:52.739Z,98858.69
2022-10-31T13:02:17.707Z,98862.41
2022-10-31T13:03:20.273Z,98860.94
2022-10-31T13:04:30.992Z,98859.94
2022-10-31T13:05:39.323Z,98859.00
2022-10-31T13:06:52.047Z,98858.16
2022-10-31T13:08:13.017Z,98860.16
2022-10-31T13:09:29.142Z,98856.13
2022-10-31T13:10:41.545Z,98859.84
2022-10-31T13:11:49.202Z,98863.03
2022-10-31T13:12:58.687Z,98857.75
2022-10-31T13:14:08.824Z,98856.09
2022-10-31T13:15:21.809Z,98848.53
2022-10-31T13:16:29.616Z,98851.94
2022-10-31T13:17:38.346Z,98851.91
2022-10-31T13:19:01.430Z,98853.19
2022-10-31T13:20:28.608Z,98859.59
2022-10-31T13:21:31.136Z,98843.00
2022-10-31T13:22:36.899Z,98850.31
2022-10-31T13:23:56.575Z,98854.72
2022-10-31T13:25:20.788Z,98855.25